Time;durP1;ratioP1;P1;durP2;ratioP2;P2;SDS_P1;SDS_P2;PMS_P1;PMS_P2;Temp;Humidity;BMP_temperature;BMP_pressure;BME280_temperature;BME280_humidity;BME280_pressure;Samples;Min_cycle;Max_cycle;Signal;HPM_P1;HPM_P2
2021/10/25 00:00:46;;;;;;;34.28;10.43;;;4.50;99.90;;;;;;5073642;28;20116;-69
2021/10/25 00:03:12;;;;;;;20.27;9.65;;;4.50;99.90;;;;;;5055319;28;20033;-69
2021/10/25 00:05:38;;;;;;;34.72;9.13;;;4.40;99.90;;;;;;5073860;28;20031;-69
2021/10/25 00:08:03;;;;;;;24.55;9.13;;;4.40;99.90;;;;;;5073491;28;20028;-69
2021/10/25 00:10:29;;;;;;;24.73;8.88;;;4.40;99.90;;;;;;5073841;28;20067;-69
2021/10/25 00:12:54;;;;;;;28.60;9.27;;;4.40;99.90;;;;;;5073564;28;20472;-69
2021/10/25 00:15:20;;;;;;;22.00;8.88;;;4.40;99.90;;;;;;5161036;22;20396;-73
2021/10/25 00:17:46;;;;;;;18.95;7.93;;;4.40;99.90;;;;;;5073383;28;20039;-72
2021/10/25 00:20:13;;;;;;;24.15;8.05;;;4.40;99.90;;;;;;5073180;28;20480;-72
2021/10/25 00:22:39;;;;;;;19.42;8.57;;;4.40;99.90;;;;;;5073686;28;20107;-72
2021/10/25 00:25:05;;;;;;;19.38;9.93;;;4.30;99.90;;;;;;5073470;28;20031;-72
2021/10/25 00:27:31;;;;;;;18.88;9.18;;;4.30;99.90;;;;;;5073302;28;20024;-72
2021/10/25 00:29:56;;;;;;;25.10;9.68;;;4.30;99.90;;;;;;5072619;28;20041;-73
2021/10/25 00:32:22;;;;;;;21.55;8.25;;;4.40;99.90;;;;;;5073413;28;20052;-72
2021/10/25 00:34:48;;;;;;;16.60;8.43;;;4.30;99.90;;;;;;5073777;28;20495;-72
2021/10/25 00:37:13;;;;;;;15.95;8.57;;;4.30;99.90;;;;;;5073177;28;20021;-72
2021/10/25 00:39:39;;;;;;;25.35;9.25;;;4.20;99.90;;;;;;5073247;28;20028;-72
2021/10/25 00:42:05;;;;;;;28.05;10.05;;;4.30;99.90;;;;;;5072968;28;20036;-73
2021/10/25 00:44:31;;;;;;;22.55;10.23;;;4.30;99.90;;;;;;5072872;28;20056;-72
2021/10/25 00:46:58;;;;;;;29.67;9.60;;;4.30;99.90;;;;;;5073166;28;20479;-72
2021/10/25 00:49:24;;;;;;;16.15;8.75;;;4.30;99.90;;;;;;5073046;28;20033;-72
2021/10/25 00:51:50;;;;;;;30.92;9.75;;;4.30;99.90;;;;;;5072540;28;20020;-72
2021/10/25 00:54:16;;;;;;;21.55;9.52;;;4.30;99.90;;;;;;5072728;28;20103;-72
2021/10/25 00:56:43;;;;;;;19.95;9.43;;;4.30;99.90;;;;;;5072967;28;20052;-72
2021/10/25 00:59:10;;;;;;;21.25;9.80;;;4.30;99.90;;;;;;5071292;28;20388;-72
2021/10/25 01:01:36;;;;;;;22.92;8.45;;;4.30;99.90;;;;;;5072573;28;20048;-73
2021/10/25 01:04:02;;;;;;;25.55;8.93;;;4.30;99.90;;;;;;5071629;28;20024;-72
2021/10/25 01:06:31;;;;;;;18.25;9.18;;;4.20;99.90;;;;;;5071091;28;20398;-72
2021/10/25 01:08:57;;;;;;;29.75;9.52;;;4.30;99.90;;;;;;5072644;28;20040;-72
2021/10/25 01:11:24;;;;;;;21.77;9.77;;;4.30;99.90;;;;;;5072934;28;20120;-72
2021/10/25 01:13:50;;;;;;;30.95;9.63;;;4.30;99.90;;;;;;5071587;28;20017;-72
2021/10/25 01:16:16;;;;;;;22.05;11.30;;;4.30;99.90;;;;;;5072582;28;20381;-72
2021/10/25 01:18:41;;;;;;;19.50;9.32;;;4.40;99.90;;;;;;5072350;28;20027;-72
2021/10/25 01:21:07;;;;;;;27.38;9.98;;;4.30;99.90;;;;;;5075852;28;20033;-72
2021/10/25 01:23:33;;;;;;;25.70;9.57;;;4.30;99.90;;;;;;5076780;28;20024;-72
2021/10/25 01:25:59;;;;;;;20.67;9.98;;;4.30;99.90;;;;;;5075413;28;20031;-72
2021/10/25 01:28:24;;;;;;;22.67;10.32;;;4.40;99.90;;;;;;5076378;28;20025;-73
2021/10/25 01:30:50;;;;;;;20.38;9.68;;;4.30;99.90;;;;;;5076570;28;20020;-72
2021/10/25 01:33:17;;;;;;;21.15;10.35;;;4.30;99.90;;;;;;5076827;28;20031;-72
2021/10/25 01:35:44;;;;;;;20.25;10.73;;;4.30;99.90;;;;;;5058564;28;20020;-72
2021/10/25 01:38:10;;;;;;;22.38;10.43;;;4.30;99.90;;;;;;5058641;28;20052;-72
2021/10/25 01:40:36;;;;;;;18.17;9.98;;;4.20;99.90;;;;;;5076412;28;20056;-72
2021/10/25 01:43:02;;;;;;;22.15;9.70;;;4.20;99.90;;;;;;5074611;28;20063;-72
2021/10/25 01:45:29;;;;;;;25.67;9.88;;;4.30;99.90;;;;;;5076294;28;20025;-72
2021/10/25 01:47:55;;;;;;;26.40;9.93;;;4.20;99.90;;;;;;5076883;28;20032;-72
2021/10/25 01:50:21;;;;;;;18.90;10.10;;;4.20;99.90;;;;;;5076246;28;20052;-72
2021/10/25 01:52:47;;;;;;;17.77;8.43;;;4.10;99.90;;;;;;5058303;28;20052;-72
2021/10/25 01:55:13;;;;;;;26.55;9.98;;;4.00;99.90;;;;;;5075630;28;20439;-72
2021/10/25 01:57:38;;;;;;;24.15;9.85;;;4.00;99.90;;;;;;5076148;28;20400;-72
2021/10/25 02:00:05;;;;;;;31.35;10.50;;;4.00;99.90;;;;;;5076113;28;20032;-72
2021/10/25 02:02:31;;;;;;;24.42;10.55;;;4.00;99.90;;;;;;5076041;28;20545;-72
2021/10/25 02:04:58;;;;;;;16.92;9.55;;;4.00;99.90;;;;;;5075940;28;20103;-72
2021/10/25 02:07:23;;;;;;;20.92;10.23;;;3.90;99.90;;;;;;5076483;28;20021;-72
2021/10/25 02:09:49;;;;;;;21.88;9.50;;;3.90;99.90;;;;;;5075351;28;20494;-72
2021/10/25 02:12:15;;;;;;;27.23;11.52;;;3.90;99.90;;;;;;5075890;28;20067;-72
2021/10/25 02:14:41;;;;;;;16.77;10.25;;;3.80;99.90;;;;;;5075616;28;20383;-72
2021/10/25 02:17:07;;;;;;;24.17;10.13;;;3.80;99.90;;;;;;5076117;28;20036;-72
2021/10/25 02:19:33;;;;;;;22.95;11.05;;;3.80;99.90;;;;;;5075753;28;20395;-72
2021/10/25 02:21:58;;;;;;;18.67;9.68;;;3.70;99.90;;;;;;5075708;28;20017;-72
2021/10/25 02:24:24;;;;;;;20.33;10.10;;;3.70;99.90;;;;;;5075093;28;20067;-72
2021/10/25 02:26:50;;;;;;;22.88;10.38;;;3.60;99.90;;;;;;5075899;28;20052;-72
2021/10/25 02:29:16;;;;;;;18.95;10.45;;;3.50;99.90;;;;;;5075799;28;20150;-72
2021/10/25 02:31:43;;;;;;;20.15;10.20;;;3.40;99.90;;;;;;5073834;28;20027;-72
2021/10/25 02:34:08;;;;;;;20.20;10.18;;;3.30;99.90;;;;;;5075501;28;20033;-72
2021/10/25 02:36:34;;;;;;;19.88;9.77;;;3.30;99.90;;;;;;5075438;28;20051;-72
2021/10/25 02:38:59;;;;;;;21.73;9.82;;;3.10;99.90;;;;;;5075682;28;20052;-72
2021/10/25 02:41:25;;;;;;;22.52;10.43;;;3.00;99.90;;;;;;5073517;28;20082;-72
2021/10/25 02:43:51;;;;;;;19.17;10.70;;;3.00;99.90;;;;;;5075578;28;20024;-72
2021/10/25 02:46:16;;;;;;;18.77;9.38;;;3.00;99.90;;;;;;5075735;28;20017;-72
2021/10/25 02:48:44;;;;;;;24.70;10.85;;;2.90;99.90;;;;;;5075201;28;20181;-72
2021/10/25 02:51:10;;;;;;;24.70;10.32;;;2.80;99.90;;;;;;5074669;28;20495;-72
2021/10/25 02:53:36;;;;;;;23.48;11.52;;;2.80;99.90;;;;;;5075384;28;20025;-72
2021/10/25 02:56:02;;;;;;;20.83;10.65;;;2.80;99.90;;;;;;5075596;28;20021;-72
2021/10/25 02:58:27;;;;;;;36.85;13.45;;;2.80;99.90;;;;;;5075019;28;20052;-72
2021/10/25 03:00:53;;;;;;;22.58;11.73;;;2.90;99.90;;;;;;5074458;28;20028;-72
2021/10/25 03:03:18;;;;;;;28.30;12.15;;;2.90;99.90;;;;;;5070236;28;20120;-73
2021/10/25 03:05:44;;;;;;;24.35;11.70;;;2.80;99.90;;;;;;5059570;28;20084;-72
2021/10/25 03:08:10;;;;;;;34.95;13.27;;;2.80;99.90;;;;;;5036611;28;20025;-72
2021/10/25 03:10:35;;;;;;;23.88;11.30;;;2.90;99.90;;;;;;5055023;28;20025;-72
2021/10/25 03:13:02;;;;;;;33.25;13.77;;;2.90;99.90;;;;;;5054001;28;20135;-72
2021/10/25 03:15:27;;;;;;;46.80;15.27;;;3.10;99.90;;;;;;5054527;28;20108;-72
2021/10/25 03:17:53;;;;;;;30.58;15.15;;;3.20;99.90;;;;;;5036721;28;20503;-72
2021/10/25 03:20:19;;;;;;;38.00;15.18;;;3.30;99.90;;;;;;5072209;28;20089;-72
2021/10/25 03:22:45;;;;;;;29.95;15.00;;;3.30;99.90;;;;;;5074006;28;20503;-72
2021/10/25 03:25:11;;;;;;;34.50;16.75;;;3.40;99.90;;;;;;5074368;28;20068;-72
2021/10/25 03:27:38;;;;;;;39.15;16.00;;;3.40;99.90;;;;;;5074358;28;20032;-72
2021/10/25 03:30:05;;;;;;;29.95;15.73;;;3.60;99.90;;;;;;5074084;28;20020;-72
2021/10/25 03:32:31;;;;;;;36.08;17.13;;;3.60;99.90;;;;;;5055995;28;20021;-72
2021/10/25 03:34:56;;;;;;;28.90;15.65;;;3.50;99.90;;;;;;5074207;28;20028;-72
2021/10/25 03:37:22;;;;;;;34.35;16.83;;;3.50;99.90;;;;;;5074311;28;20056;-72
2021/10/25 03:39:50;;;;;;;42.10;17.08;;;3.40;99.90;;;;;;5073801;28;20110;-72
2021/10/25 03:42:28;;;;;;;30.08;16.95;;;3.50;99.90;;;;;;5074021;28;20431;-72
2021/10/25 03:47:33;;;;;;;43.20;18.70;;;3.50;99.90;;;;;;5073505;28;20048;-72
2021/10/25 03:50:08;;;;;;;43.45;17.73;;;3.60;99.90;;;;;;5073609;28;20476;-72
2021/10/25 03:55:12;;;;;;;30.20;16.63;;;3.50;99.90;;;;;;5074019;28;20046;-72
2021/10/25 04:27:48;;;;;;;;;;;3.60;99.90;;;;;;5053788;28;20083;-72
2021/10/25 04:30:15;;;;;;;42.55;19.52;;;3.60;99.90;;;;;;5064820;28;19915;-72
2021/10/25 04:32:40;;;;;;;36.42;20.10;;;3.60;99.90;;;;;;5073298;28;20020;-72
2021/10/25 04:35:07;;;;;;;45.72;21.17;;;3.60;99.90;;;;;;5054934;28;20078;-72
2021/10/25 04:37:32;;;;;;;44.03;22.08;;;3.50;99.90;;;;;;5073408;28;20029;-72
2021/10/25 04:39:58;;;;;;;33.70;20.50;;;3.60;99.90;;;;;;5073006;28;20023;-72
2021/10/25 04:42:24;;;;;;;38.60;21.77;;;3.60;99.90;;;;;;5072651;28;20056;-72
2021/10/25 04:44:50;;;;;;;48.22;22.10;;;3.60;99.90;;;;;;5073207;28;20513;-72
2021/10/25 04:47:16;;;;;;;33.95;21.20;;;3.60;99.90;;;;;;5073128;28;20029;-72
2021/10/25 04:49:42;;;;;;;47.53;22.35;;;3.50;99.90;;;;;;5072874;28;20028;-72
2021/10/25 04:52:09;;;;;;;42.97;21.55;;;3.50;99.90;;;;;;5073098;28;20369;-72
2021/10/25 04:54:35;;;;;;;47.28;21.67;;;3.40;99.90;;;;;;5071795;28;20035;-72
2021/10/25 04:57:01;;;;;;;37.28;20.92;;;3.40;99.90;;;;;;5054969;28;20407;-72
2021/10/25 04:59:27;;;;;;;44.50;22.08;;;3.60;99.90;;;;;;5072807;28;20028;-72
2021/10/25 05:01:53;;;;;;;42.30;24.73;;;3.50;99.90;;;;;;5072988;28;20024;-72
2021/10/25 05:04:18;;;;;;;43.05;25.73;;;3.60;99.90;;;;;;5072389;28;20036;-72
2021/10/25 05:06:44;;;;;;;55.30;24.55;;;3.70;99.90;;;;;;5073064;28;20392;-72
2021/10/25 05:09:10;;;;;;;47.25;24.35;;;3.70;99.90;;;;;;5054937;28;20021;-72
2021/10/25 05:11:35;;;;;;;48.20;24.80;;;3.60;99.90;;;;;;5072797;28;20094;-72
2021/10/25 05:14:02;;;;;;;57.95;26.17;;;3.70;99.90;;;;;;5072809;28;20483;-72
2021/10/25 05:16:28;;;;;;;45.40;26.98;;;3.70;99.90;;;;;;5054686;28;20029;-72
2021/10/25 05:18:53;;;;;;;55.92;26.60;;;3.80;99.90;;;;;;5072160;28;20035;-72
2021/10/25 05:21:19;;;;;;;47.30;24.80;;;3.80;99.90;;;;;;5072825;28;20472;-72
2021/10/25 05:23:45;;;;;;;40.03;23.50;;;3.80;99.90;;;;;;5054476;28;20040;-73
2021/10/25 05:26:10;;;;;;;56.13;27.25;;;3.70;99.90;;;;;;5072137;28;20144;-72
2021/10/25 05:28:36;;;;;;;48.95;26.30;;;3.70;99.90;;;;;;5072690;28;20016;-72
2021/10/25 05:31:02;;;;;;;51.47;26.98;;;3.70;99.90;;;;;;5072694;28;20031;-72
2021/10/25 05:33:28;;;;;;;51.47;26.80;;;3.70;99.90;;;;;;5072546;28;20029;-72
2021/10/25 05:35:53;;;;;;;51.63;27.45;;;3.80;99.90;;;;;;5072072;28;20093;-72
2021/10/25 05:38:19;;;;;;;61.28;28.10;;;3.70;99.90;;;;;;5072617;28;20468;-72
2021/10/25 05:40:45;;;;;;;60.75;30.17;;;3.80;99.90;;;;;;5072339;28;20030;-72
2021/10/25 05:43:11;;;;;;;60.05;28.48;;;3.80;99.90;;;;;;5072561;28;20446;-72
2021/10/25 05:45:37;;;;;;;65.20;29.45;;;3.80;99.90;;;;;;5072017;28;20016;-72
2021/10/25 05:48:03;;;;;;;59.40;29.50;;;3.90;99.90;;;;;;5072541;28;20024;-72
2021/10/25 05:50:29;;;;;;;52.13;29.15;;;3.80;99.90;;;;;;5072408;28;20060;-72
2021/10/25 05:52:54;;;;;;;49.08;28.88;;;3.80;99.90;;;;;;5072385;28;20052;-72
2021/10/25 05:55:23;;;;;;;46.22;27.25;;;3.90;99.90;;;;;;5071872;28;20104;-72
2021/10/25 05:57:49;;;;;;;62.60;30.75;;;3.80;99.90;;;;;;5072522;28;20051;-72
2021/10/25 06:00:15;;;;;;;72.65;31.05;;;3.90;99.90;;;;;;5072396;28;20056;-72
2021/10/25 06:02:51;;;;;;;63.03;32.75;;;3.80;99.90;;;;;;5072143;28;20021;-72
2021/10/25 06:05:17;;;;;;;63.53;30.65;;;3.90;99.90;;;;;;5054859;28;20434;-72
2021/10/25 06:07:43;;;;;;;59.47;31.80;;;3.80;99.90;;;;;;5057938;28;20024;-72
2021/10/25 06:10:11;;;;;;;67.18;34.35;;;3.90;99.90;;;;;;5075799;28;20396;-72
2021/10/25 06:12:41;;;;;;;63.80;32.50;;;3.90;99.90;;;;;;5075819;28;20042;-72
2021/10/25 06:15:11;;;;;;;51.83;29.75;;;3.90;99.90;;;;;;5098359;22;20029;-66
2021/10/25 06:17:51;;;;;;;61.28;31.23;;;3.90;99.90;;;;;;5075832;28;20033;-66
2021/10/25 06:20:18;;;;;;;63.28;33.97;;;3.80;99.90;;;;;;5075986;28;20099;-66
2021/10/25 06:22:43;;;;;;;57.50;31.60;;;3.90;99.90;;;;;;5075243;28;20030;-65
2021/10/25 06:25:13;;;;;;;73.70;34.13;;;3.90;99.90;;;;;;5075253;28;20025;-66
2021/10/25 06:27:39;;;;;;;60.70;32.78;;;4.00;99.90;;;;;;5075756;28;20021;-66
2021/10/25 06:30:05;;;;;;;74.88;33.40;;;3.90;99.90;;;;;;5075435;28;20037;-65
2021/10/25 06:32:30;;;;;;;76.38;35.00;;;3.90;99.90;;;;;;5075619;28;20020;-66
2021/10/25 06:34:58;;;;;;;72.40;34.95;;;4.00;99.90;;;;;;5075651;28;20059;-66
2021/10/25 06:37:31;;;;;;;70.38;34.78;;;4.00;99.90;;;;;;5074730;28;20020;-66
2021/10/25 06:39:57;;;;;;;81.18;37.00;;;4.00;99.90;;;;;;5075374;28;20029;-66
2021/10/25 06:42:24;;;;;;;74.53;35.55;;;4.10;99.90;;;;;;5075011;28;20519;-66
2021/10/25 06:45:00;;;;;;;70.50;36.35;;;4.10;99.90;;;;;;5075510;28;20036;-66
2021/10/25 06:47:26;;;;;;;72.05;37.20;;;4.10;99.90;;;;;;5075529;28;20029;-66
2021/10/25 06:49:52;;;;;;;75.20;38.88;;;4.30;99.90;;;;;;5075109;28;20074;-66
2021/10/25 06:52:18;;;;;;;76.18;36.83;;;4.30;99.90;;;;;;5074592;28;20120;-66
2021/10/25 06:54:43;;;;;;;72.32;37.38;;;4.30;99.90;;;;;;5074862;28;20021;-66
2021/10/25 06:57:09;;;;;;;74.85;38.40;;;4.30;99.90;;;;;;5057003;28;20104;-66
2021/10/25 06:59:34;;;;;;;79.95;40.78;;;4.40;99.90;;;;;;5075564;28;20059;-66
2021/10/25 07:02:00;;;;;;;96.25;44.33;;;4.60;99.90;;;;;;5074763;28;20081;-65
2021/10/25 07:04:25;;;;;;;82.15;42.70;;;4.80;99.90;;;;;;5074884;28;20040;-66
2021/10/25 07:06:54;;;;;;;83.53;41.97;;;4.90;99.90;;;;;;5074249;28;20032;-66
2021/10/25 07:09:20;;;;;;;82.88;40.95;;;5.10;99.90;;;;;;5074882;28;20064;-66
2021/10/25 07:11:46;;;;;;;80.72;42.53;;;5.30;99.90;;;;;;5066276;28;20025;-66
2021/10/25 07:14:14;;;;;;;79.47;43.50;;;5.40;99.90;;;;;;5054972;28;20472;-66
2021/10/25 07:16:46;;;;;;;95.28;46.03;;;5.50;99.90;;;;;;5053920;28;20029;-66
2021/10/25 07:27:13;;;;;;;79.28;38.20;;;6.10;99.90;;;;;;5074441;28;20549;-66
2021/10/25 08:00:12;;;;;;;;;;;7.70;99.90;;;;;;5074546;28;20121;-66
2021/10/25 08:07:59;;;;;;;50.00;32.47;;;8.30;99.90;;;;;;5073985;28;20035;-67
2021/10/25 08:10:29;;;;;;;55.03;31.40;;;8.30;99.90;;;;;;5073333;28;20517;-66
2021/10/25 08:13:02;;;;;;;52.83;31.98;;;8.50;99.90;;;;;;5073528;28;20415;-66
2021/10/25 08:15:34;;;;;;;50.20;28.73;;;8.60;99.90;;;;;;5072673;28;20477;-65
2021/10/25 08:18:03;;;;;;;46.23;29.23;;;8.60;99.90;;;;;;5073822;28;20070;-66
2021/10/25 08:20:28;;;;;;;50.22;26.42;;;8.80;99.90;;;;;;5073503;28;20039;-66
2021/10/25 08:22:54;;;;;;;41.95;25.83;;;8.90;99.90;;;;;;5073425;28;20025;-66
2021/10/25 08:25:21;;;;;;;37.85;26.40;;;9.10;99.90;;;;;;5073523;28;20108;-66
2021/10/25 08:27:46;;;;;;;33.13;22.75;;;9.30;99.90;;;;;;5072897;28;20028;-66
2021/10/25 08:30:16;;;;;;;38.63;25.15;;;9.30;99.90;;;;;;5072083;28;20028;-66
2021/10/25 08:33:01;;;;;;;37.88;23.80;;;9.50;99.90;;;;;;5073048;28;20014;-66
2021/10/25 08:40:41;;;;;;;37.95;22.50;;;9.70;99.90;;;;;;5073044;28;20032;-65
2021/10/25 08:43:08;;;;;;;36.53;22.23;;;9.70;99.90;;;;;;5073426;28;20434;-66
2021/10/25 08:45:34;;;;;;;36.35;21.05;;;9.80;99.90;;;;;;5072750;28;20051;-65
2021/10/25 08:48:02;;;;;;;31.38;20.60;;;9.70;99.90;;;;;;5072933;28;20103;-65
2021/10/25 08:50:30;;;;;;;37.90;23.02;;;9.70;99.90;;;;;;5073267;28;20067;-65
2021/10/25 08:52:57;;;;;;;40.08;22.42;;;9.60;99.90;;;;;;5073298;28;20373;-65
2021/10/25 08:55:24;;;;;;;35.17;21.95;;;9.50;99.90;;;;;;5072847;28;20024;-66
2021/10/25 08:57:50;;;;;;;31.60;19.92;;;9.60;99.90;;;;;;5032790;28;20420;-65
2021/10/25 09:00:19;;;;;;;37.65;21.33;;;9.60;99.90;;;;;;5033335;28;20025;-66
2021/10/25 09:03:00;;;;;;;31.15;21.00;;;9.70;99.90;;;;;;5033349;28;20075;-66
2021/10/25 09:05:26;;;;;;;34.90;21.80;;;9.60;99.90;;;;;;5032972;28;20030;-66
2021/10/25 09:08:00;;;;;;;30.98;20.52;;;9.60;99.90;;;;;;5060905;28;20021;-65
2021/10/25 09:10:25;;;;;;;38.97;22.55;;;9.60;99.90;;;;;;5072281;28;20559;-65
2021/10/25 09:12:58;;;;;;;38.65;21.20;;;9.60;99.90;;;;;;5072946;28;20099;-66
2021/10/25 09:15:28;;;;;;;44.58;22.23;;;9.70;99.90;;;;;;5072753;28;20052;-65
2021/10/25 09:17:57;;;;;;;33.63;22.80;;;9.70;99.90;;;;;;5072611;28;20107;-65
2021/10/25 09:20:23;;;;;;;35.60;21.40;;;9.70;99.90;;;;;;5072190;28;20472;-65
2021/10/25 09:22:52;;;;;;;33.30;21.05;;;9.80;99.90;;;;;;5072890;28;20103;-65
2021/10/25 09:25:17;;;;;;;37.78;21.33;;;9.80;99.90;;;;;;5072900;28;20025;-66
2021/10/25 09:27:45;;;;;;;34.95;22.45;;;9.90;99.90;;;;;;5072732;28;20360;-66
2021/10/25 09:30:16;;;;;;;27.90;20.13;;;10.00;99.90;;;;;;5072921;28;20032;-66
2021/10/25 09:32:44;;;;;;;38.40;22.00;;;10.10;99.90;;;;;;5073015;28;20111;-66
2021/10/25 09:35:43;;;;;;;31.05;21.05;;;10.30;99.90;;;;;;5072066;28;20075;-66
2021/10/25 09:38:06;;;;;;;30.98;19.83;;;10.40;99.90;;;;;;5068557;28;20527;-66
2021/10/25 09:41:17;;;;;;;33.92;18.83;;;10.70;99.90;;;;;;5074247;28;20036;-66
2021/10/25 09:46:38;;;;;;;31.75;20.35;;;10.70;99.90;;;;;;5076442;28;20024;-66
2021/10/25 09:51:30;;;;;;;32.20;19.35;;;11.20;99.90;;;;;;5076656;28;20056;-66
2021/10/25 09:53:58;;;;;;;33.25;18.30;;;11.20;99.90;;;;;;5076268;28;20048;-66
2021/10/25 09:56:31;;;;;;;33.83;20.85;;;11.10;99.90;;;;;;5075891;28;20104;-66
2021/10/25 09:59:09;;;;;;;32.47;17.60;;;11.00;99.90;;;;;;5076130;28;20056;-66
2021/10/25 10:01:36;;;;;;;28.65;19.10;;;11.00;99.90;;;;;;5076383;28;20098;-66
2021/10/25 10:04:03;;;;;;;29.63;17.98;;;11.10;99.90;;;;;;5075581;28;20067;-66
2021/10/25 10:06:29;;;;;;;30.20;20.17;;;11.00;99.90;;;;;;5076034;28;20021;-66
2021/10/25 10:08:55;;;;;;;28.60;18.23;;;11.30;99.90;;;;;;5076039;28;20027;-66
2021/10/25 10:11:22;;;;;;;29.70;17.92;;;11.40;99.90;;;;;;5057899;28;20024;-66
2021/10/25 10:13:47;;;;;;;36.72;18.48;;;11.20;99.90;;;;;;5075321;28;20111;-66
2021/10/25 10:16:14;;;;;;;27.42;18.55;;;11.20;99.90;;;;;;5075388;28;20112;-66
2021/10/25 10:18:44;;;;;;;31.17;18.58;;;11.30;99.90;;;;;;5068055;28;20066;-66
2021/10/25 10:21:12;;;;;;;34.33;19.95;;;11.20;99.90;;;;;;5055618;28;20156;-66
2021/10/25 10:23:44;;;;;;;29.08;18.77;;;11.40;99.90;;;;;;5055880;28;20029;-66
2021/10/25 10:26:16;;;;;;;29.08;18.02;;;11.40;99.90;;;;;;5055322;28;20480;-66
2021/10/25 10:28:49;;;;;;;27.60;18.63;;;11.30;99.90;;;;;;5055327;28;20047;-66
2021/10/25 10:31:18;;;;;;;29.27;19.02;;;11.30;99.90;;;;;;5055661;28;20028;-66
2021/10/25 10:33:49;;;;;;;29.25;19.30;;;11.50;99.90;;;;;;5055774;28;20029;-66
2021/10/25 10:36:18;;;;;;;31.98;17.80;;;11.40;99.90;;;;;;5055679;28;20071;-66
2021/10/25 10:38:51;;;;;;;32.45;17.75;;;11.40;99.90;;;;;;5055027;28;20031;-65
2021/10/25 10:41:18;;;;;;;;;;;11.40;99.90;;;;;;5035739;28;20033;-66
2021/10/25 10:44:01;;;;;;;35.05;18.80;;;11.60;99.90;;;;;;5035699;28;19967;-66
2021/10/25 10:46:50;;;;;;;24.42;17.80;;;11.40;99.90;;;;;;5035746;28;20035;-66
2021/10/25 10:49:24;;;;;;;29.52;17.15;;;11.30;99.90;;;;;;5053965;28;20082;-66
2021/10/25 10:52:15;;;;;;;;;;;11.40;99.90;;;;;;5054884;28;20032;-66
2021/10/25 11:00:24;;;;;;;29.48;16.55;;;11.60;99.90;;;;;;5054872;28;20033;-65
2021/10/25 11:02:54;;;;;;;30.73;16.65;;;11.70;99.90;;;;;;5054959;28;20043;-66
2021/10/25 11:05:50;;;;;;;31.27;18.42;;;11.70;99.90;;;;;;5054724;28;20487;-65
2021/10/25 11:08:17;;;;;;;40.25;17.98;;;11.70;99.90;;;;;;5054900;28;20061;-66
2021/10/25 11:10:45;;;;;;;28.30;16.45;;;11.70;99.90;;;;;;5054813;28;20029;-65
2021/10/25 11:13:22;;;;;;;26.27;17.75;;;11.90;99.90;;;;;;5055074;28;20100;-66
2021/10/25 11:16:06;;;;;;;26.50;16.65;;;11.90;99.90;;;;;;5053969;28;20040;-66
2021/10/25 11:18:34;;;;;;;31.52;18.08;;;12.10;99.90;;;;;;5054681;28;20473;-66
2021/10/25 11:21:29;;;;;;;25.83;16.50;;;12.20;99.90;;;;;;5054929;28;20377;-66
2021/10/25 11:23:57;;;;;;;25.85;16.75;;;12.40;99.90;;;;;;5052870;28;20112;-65
2021/10/25 11:26:36;;;;;;;28.60;16.20;;;12.40;99.90;;;;;;5054556;28;20029;-66
2021/10/25 11:29:26;;;;;;;27.83;16.63;;;12.30;99.90;;;;;;5054486;28;20025;-66
2021/10/25 11:31:56;;;;;;;26.88;18.33;;;12.20;99.90;;;;;;5053763;28;20419;-66
2021/10/25 11:34:46;;;;;;;29.15;18.70;;;12.10;99.90;;;;;;5054744;28;20530;-66
2021/10/25 11:37:16;;;;;;;30.08;17.77;;;11.90;99.90;;;;;;5054239;28;20021;-66
2021/10/25 11:39:58;;;;;;;28.65;17.48;;;11.80;99.90;;;;;;5054484;28;20033;-66
2021/10/25 11:42:27;;;;;;;31.08;19.17;;;11.70;99.90;;;;;;5054262;28;20079;-66
2021/10/25 11:44:57;;;;;;;35.72;18.90;;;11.50;99.90;;;;;;5053438;28;20555;-65
2021/10/25 11:47:25;;;;;;;33.97;18.63;;;11.40;99.90;;;;;;5054592;28;20055;-67
2021/10/25 11:49:56;;;;;;;26.38;16.58;;;11.40;99.90;;;;;;5054247;28;20460;-66
2021/10/25 11:52:22;;;;;;;32.80;18.27;;;11.40;99.90;;;;;;5053515;28;20028;-66
2021/10/25 11:54:50;;;;;;;34.17;18.38;;;11.30;99.90;;;;;;5054168;28;20130;-66
2021/10/25 11:57:18;;;;;;;22.98;17.00;;;11.20;99.90;;;;;;5053673;28;20040;-66
2021/10/25 11:59:54;;;;;;;31.85;18.58;;;11.20;99.90;;;;;;5054143;28;20143;-66
2021/10/25 12:02:22;;;;;;;29.85;19.17;;;11.20;99.90;;;;;;5053817;28;20025;-66
2021/10/25 12:04:48;;;;;;;31.23;17.42;;;11.20;99.90;;;;;;5052804;28;20392;-66
2021/10/25 12:07:14;;;;;;;41.03;18.75;;;11.10;99.90;;;;;;5053714;28;20029;-66
2021/10/25 12:09:39;;;;;;;28.90;19.27;;;11.00;99.90;;;;;;5053466;28;20021;-66
2021/10/25 12:12:09;;;;;;;28.63;18.13;;;10.90;99.90;;;;;;5053166;28;20020;-66
2021/10/25 12:14:38;;;;;;;35.90;19.35;;;10.90;99.90;;;;;;5053840;28;20078;-66
2021/10/25 12:17:05;;;;;;;37.67;20.38;;;10.90;99.90;;;;;;5053034;28;20033;-66
2021/10/25 12:19:30;;;;;;;31.73;19.80;;;10.80;99.90;;;;;;5053791;28;20032;-66
2021/10/25 12:22:15;;;;;;;33.17;19.50;;;10.70;99.90;;;;;;5053650;28;20112;-66
2021/10/25 12:24:47;;;;;;;42.30;23.63;;;10.70;99.90;;;;;;5053090;28;20079;-66
2021/10/25 12:27:15;;;;;;;41.03;22.38;;;10.60;99.90;;;;;;5053681;28;20074;-66
2021/10/25 12:29:41;;;;;;;42.83;21.73;;;10.50;99.90;;;;;;5053422;28;20074;-65
2021/10/25 12:32:08;;;;;;;37.15;20.88;;;10.60;99.90;;;;;;5053298;28;20029;-65
2021/10/25 12:34:53;;;;;;;41.53;21.33;;;10.50;99.90;;;;;;5053667;28;20104;-66
2021/10/25 12:37:24;;;;;;;34.53;20.83;;;10.40;99.90;;;;;;5053390;28;20103;-66
2021/10/25 12:39:51;;;;;;;39.05;20.83;;;10.40;99.90;;;;;;5053547;28;20044;-66
2021/10/25 12:42:17;;;;;;;38.42;21.05;;;10.40;99.90;;;;;;5053165;28;20032;-65
2021/10/25 12:44:47;;;;;;;36.97;22.15;;;10.40;99.90;;;;;;5053222;28;20392;-67
2021/10/25 12:47:19;;;;;;;41.58;22.17;;;10.50;99.90;;;;;;5052540;28;20036;-66
2021/10/25 12:49:56;;;;;;;36.67;22.35;;;10.40;99.90;;;;;;5053153;28;20029;-66
2021/10/25 12:52:27;;;;;;;43.10;22.23;;;10.40;99.90;;;;;;5053289;28;20040;-65
2021/10/25 12:54:58;;;;;;;38.60;23.75;;;10.40;99.90;;;;;;5053323;28;20066;-66
2021/10/25 12:57:31;;;;;;;33.10;23.30;;;10.40;99.90;;;;;;5052657;28;20554;-65
2021/10/25 13:00:10;;;;;;;30.83;22.67;;;10.40;99.90;;;;;;5053371;28;20570;-66
2021/10/25 13:02:45;;;;;;;40.03;23.02;;;10.40;99.90;;;;;;5053109;28;20029;-66
2021/10/25 13:05:38;;;;;;;38.83;23.05;;;10.50;99.90;;;;;;5053207;28;20078;-66
2021/10/25 13:08:06;;;;;;;38.55;22.25;;;10.50;99.90;;;;;;5050054;28;20044;-65
2021/10/25 13:10:33;;;;;;;34.92;23.73;;;10.50;99.90;;;;;;5052822;28;20029;-66
2021/10/25 13:13:01;;;;;;;49.45;26.30;;;10.50;99.90;;;;;;5046311;28;20029;-65
2021/10/25 13:15:26;;;;;;;37.05;23.45;;;10.40;99.90;;;;;;5044029;28;20098;-65
2021/10/25 13:17:55;;;;;;;39.50;23.33;;;10.40;99.90;;;;;;5047328;28;20543;-65
2021/10/25 13:20:23;;;;;;;41.70;23.70;;;10.40;99.90;;;;;;5053177;28;20514;-64
2021/10/25 13:22:51;;;;;;;46.22;25.65;;;10.40;99.90;;;;;;5049842;28;20029;-66
2021/10/25 13:25:19;;;;;;;40.90;24.48;;;10.40;99.90;;;;;;5043016;28;20044;-66
2021/10/25 13:27:46;;;;;;;46.95;25.80;;;10.50;99.90;;;;;;5052894;28;20029;-66
2021/10/25 13:30:13;;;;;;;51.58;27.10;;;10.50;99.90;;;;;;5052433;28;20021;-66
2021/10/25 13:32:39;;;;;;;42.47;25.35;;;10.50;99.90;;;;;;5046868;28;20434;-66
2021/10/25 13:35:06;;;;;;;41.33;24.50;;;10.50;99.90;;;;;;5048749;28;20107;-66
2021/10/25 13:37:32;;;;;;;46.53;26.77;;;10.60;99.90;;;;;;5047500;28;20052;-66
2021/10/25 13:39:58;;;;;;;41.55;24.42;;;10.50;99.90;;;;;;5052655;28;20021;-66
2021/10/25 13:42:24;;;;;;;46.15;24.33;;;10.50;99.90;;;;;;5045570;28;20028;-66
2021/10/25 13:44:50;;;;;;;44.00;25.13;;;10.50;99.90;;;;;;5048286;28;20373;-66
2021/10/25 13:47:16;;;;;;;51.90;26.10;;;10.50;99.90;;;;;;5050058;28;20037;-66
2021/10/25 13:49:42;;;;;;;45.75;26.33;;;10.60;99.90;;;;;;5046889;28;20029;-67
2021/10/25 13:52:08;;;;;;;44.13;26.98;;;10.60;99.90;;;;;;5051441;28;20029;-67
2021/10/25 13:54:34;;;;;;;42.20;26.88;;;10.60;99.90;;;;;;5045090;28;20373;-66
2021/10/25 13:57:02;;;;;;;56.47;28.75;;;10.50;99.90;;;;;;5050427;28;20047;-66
2021/10/25 13:59:27;;;;;;;47.33;28.13;;;10.40;99.90;;;;;;5051088;28;20025;-67
2021/10/25 14:01:53;;;;;;;46.40;28.95;;;10.50;99.90;;;;;;5049175;28;20083;-67
2021/10/25 14:04:20;;;;;;;50.25;30.30;;;10.50;99.90;;;;;;5048959;28;20037;-67
2021/10/25 14:06:46;;;;;;;55.50;29.60;;;10.50;99.90;;;;;;5048589;28;20035;-66
2021/10/25 14:09:12;;;;;;;45.92;30.35;;;10.40;99.90;;;;;;5055343;28;20535;-66
2021/10/25 14:11:43;;;;;;;48.78;29.77;;;10.50;99.90;;;;;;5075750;28;20023;-66
2021/10/25 14:14:18;;;;;;;46.10;30.20;;;10.50;99.90;;;;;;5075206;28;20017;-66
2021/10/25 14:16:52;;;;;;;48.25;29.95;;;10.40;99.90;;;;;;5047576;28;20086;-66